createdAt,value
2019-04-16T00:01:34.688Z,92.00
2019-04-16T00:04:11.617Z,92.60
2019-04-16T00:07:00.550Z,92.70
2019-04-16T00:09:31.545Z,92.80
2019-04-16T00:12:18.840Z,93.10
2019-04-16T00:14:49.844Z,93.00
2019-04-16T00:17:19.151Z,93.10
2019-04-16T00:19:48.460Z,93.40
2019-04-16T00:22:28.617Z,93.20
2019-04-16T00:24:57.918Z,93.10
2019-04-16T00:27:28.760Z,93.20
2019-04-16T00:29:58.549Z,93.20
2019-04-16T00:32:29.580Z,93.00
2019-04-16T00:34:58.908Z,93.20
2019-04-16T00:37:28.238Z,93.20
2019-04-16T00:39:57.548Z,93.20
2019-04-16T00:42:26.848Z,93.10
2019-04-16T00:44:56.279Z,93.20
2019-04-16T00:47:25.909Z,93.40
2019-04-16T00:49:57.968Z,93.20
2019-04-16T00:52:26.639Z,93.30
2019-04-16T00:54:55.953Z,93.00
2019-04-16T00:57:25.269Z,93.00
2019-04-16T00:59:56.141Z,93.20
2019-04-16T01:02:25.994Z,93.30
2019-04-16T01:04:55.293Z,93.10
2019-04-16T01:07:24.709Z,93.30
2019-04-16T01:09:55.213Z,93.50
2019-04-16T01:12:24.521Z,93.80
2019-04-16T01:14:58.871Z,93.70
2019-04-16T01:17:25.164Z,94.10
2019-04-16T01:19:54.477Z,94.10
2019-04-16T01:22:23.829Z,94.60
2019-04-16T01:24:53.139Z,94.40
2019-04-16T01:27:28.556Z,94.30
2019-04-16T01:29:55.166Z,95.20
2019-04-16T01:32:29.474Z,95.90
2019-04-16T01:35:00.420Z,96.00
2019-04-16T01:37:34.123Z,95.80
2019-04-16T01:40:06.012Z,96.30
2019-04-16T01:42:41.249Z,96.10
2019-04-16T01:45:10.631Z,96.30
2019-04-16T01:47:39.925Z,96.00
2019-04-16T01:50:12.905Z,96.50
2019-04-16T01:52:40.382Z,96.70
2019-04-16T01:55:09.823Z,96.30
2019-04-16T01:57:39.156Z,96.50
2019-04-16T02:00:09.832Z,97.50
2019-04-16T02:02:39.402Z,97.30
2019-04-16T02:05:08.805Z,97.10
2019-04-16T02:07:38.111Z,97.30
2019-04-16T02:10:08.123Z,97.90
2019-04-16T02:12:37.540Z,98.30
2019-04-16T02:15:08.844Z,98.00
2019-04-16T02:17:38.140Z,98.00
2019-04-16T02:20:07.853Z,98.70
2019-04-16T02:22:37.177Z,98.90
2019-04-16T02:25:06.719Z,98.80
2019-04-16T02:27:36.100Z,99.50
2019-04-16T02:30:06.994Z,99.30
2019-04-16T02:32:36.307Z,99.00
2019-04-16T02:35:07.206Z,98.70
2019-04-16T02:37:39.169Z,99.20
2019-04-16T02:40:08.911Z,99.20
2019-04-16T02:42:40.079Z,99.30
2019-04-16T02:45:10.017Z,99.70
2019-04-16T02:47:41.928Z,99.90
2019-04-16T02:50:12.431Z,99.60
2019-04-16T02:52:58.816Z,99.70
2019-04-16T02:55:42.851Z,99.80
2019-04-16T02:58:20.355Z,99.60
2019-04-16T03:01:07.335Z,99.70
2019-04-16T03:03:38.289Z,99.10
2019-04-16T03:06:07.860Z,99.20
2019-04-16T03:08:37.320Z,99.10
2019-04-16T03:11:06.644Z,99.30
2019-04-16T03:13:35.941Z,99.40
2019-04-16T03:16:23.336Z,99.70
2019-04-16T03:18:54.297Z,99.90
2019-04-16T03:21:24.478Z,99.90
2019-04-16T03:23:54.728Z,99.90
2019-04-16T03:26:24.016Z,99.90
2019-04-16T03:28:55.692Z,99.90
2019-04-16T03:31:24.492Z,99.90
2019-04-16T03:33:53.824Z,99.90
2019-04-16T03:36:23.157Z,99.90
2019-04-16T03:38:52.677Z,99.90
2019-04-16T03:41:25.016Z,99.90
2019-04-16T03:43:53.008Z,99.90
2019-04-16T03:46:22.591Z,99.90
2019-04-16T03:48:55.132Z,99.90
2019-04-16T03:51:22.996Z,99.90
2019-04-16T03:53:52.356Z,99.90
2019-04-16T03:56:21.662Z,99.90
2019-04-16T03:58:50.981Z,99.90
2019-04-16T04:01:20.573Z,99.90
2019-04-16T04:03:49.942Z,99.90
2019-04-16T04:06:19.258Z,99.90
2019-04-16T04:08:51.617Z,99.90
2019-04-16T04:11:19.629Z,99.90
2019-04-16T04:13:50.042Z,99.90
2019-04-16T04:16:20.085Z,99.90
2019-04-16T04:18:49.387Z,99.90
2019-04-16T04:21:22.668Z,99.90
2019-04-16T04:23:52.280Z,99.90
2019-04-16T04:26:21.594Z,99.90
2019-04-16T04:28:51.582Z,99.90
2019-04-16T04:31:22.019Z,99.90
2019-04-16T04:33:51.334Z,99.90
2019-04-16T04:36:22.957Z,99.90
2019-04-16T04:38:51.749Z,99.90
2019-04-16T04:41:23.064Z,99.90
2019-04-16T04:43:52.088Z,99.90
2019-04-16T04:46:21.493Z,99.90
2019-04-16T04:48:55.090Z,99.90
2019-04-16T04:51:21.856Z,99.90
2019-04-16T04:53:51.371Z,99.90
2019-04-16T04:56:20.896Z,99.90
2019-04-16T04:58:50.282Z,99.90
2019-04-16T05:01:19.643Z,99.90
2019-04-16T05:03:53.229Z,99.90
2019-04-16T05:06:27.767Z,99.90
2019-04-16T05:08:57.649Z,99.90
2019-04-16T05:11:27.180Z,99.90
2019-04-16T05:13:57.117Z,99.90
2019-04-16T05:16:26.868Z,99.90
2019-04-16T05:18:56.168Z,99.90
2019-04-16T05:21:25.551Z,99.90
2019-04-16T05:23:57.472Z,99.90
2019-04-16T05:26:25.873Z,99.90
2019-04-16T05:28:56.940Z,99.90
2019-04-16T05:31:26.304Z,99.90
2019-04-16T05:33:59.483Z,99.90
2019-04-16T05:36:26.689Z,99.90
2019-04-16T05:38:56.408Z,99.90
2019-04-16T05:41:26.118Z,99.90
2019-04-16T05:43:58.393Z,99.90
2019-04-16T05:46:26.836Z,99.90
2019-04-16T05:48:58.856Z,99.90
2019-04-16T05:51:31.373Z,99.90
2019-04-16T05:54:00.945Z,99.90
2019-04-16T05:56:34.947Z,99.90
2019-04-16T05:59:04.321Z,99.90
2019-04-16T06:01:47.762Z,99.90
2019-04-16T06:04:17.376Z,99.90
2019-04-16T06:06:46.692Z,99.90
2019-04-16T06:09:16.061Z,99.90
2019-04-16T06:11:45.620Z,99.90
2019-04-16T06:14:18.621Z,99.90
2019-04-16T06:17:05.547Z,99.90
2019-04-16T06:19:52.650Z,99.90
2019-04-16T06:22:35.622Z,99.90
2019-04-16T06:25:13.694Z,99.90
2019-04-16T06:27:50.805Z,99.90
2019-04-16T06:30:33.872Z,99.90
2019-04-16T06:33:03.849Z,99.90
2019-04-16T06:35:46.568Z,99.90
2019-04-16T06:38:19.997Z,99.90
2019-04-16T06:40:54.480Z,99.90
2019-04-16T06:43:31.836Z,99.90
2019-04-16T06:46:18.532Z,99.90
2019-04-16T06:48:52.677Z,99.90
2019-04-16T06:51:32.523Z,99.90
2019-04-16T06:54:18.415Z,99.90
2019-04-16T06:57:05.409Z,99.90
2019-04-16T06:59:52.446Z,99.90
2019-04-16T07:02:43.162Z,99.70
2019-04-16T07:05:23.521Z,99.30
2019-04-16T07:08:06.508Z,99.20
2019-04-16T07:10:44.306Z,98.40
2019-04-16T07:13:11.242Z,98.20
2019-04-16T07:15:39.510Z,98.00
2019-04-16T07:18:08.861Z,98.10
2019-04-16T07:20:38.166Z,97.70
2019-04-16T07:23:09.060Z,97.50
2019-04-16T07:25:41.718Z,97.20
2019-04-16T07:28:13.674Z,97.00
2019-04-16T07:30:44.723Z,96.20
2019-04-16T07:33:21.856Z,96.60
2019-04-16T07:35:52.941Z,95.50
2019-04-16T07:38:23.866Z,95.30
2019-04-16T07:41:11.051Z,95.00
2019-04-16T07:43:55.230Z,95.40
2019-04-16T07:46:44.217Z,94.90
2019-04-16T07:49:31.589Z,92.90
2019-04-16T07:52:12.268Z,92.90
2019-04-16T07:54:49.366Z,92.60
2019-04-16T07:57:18.717Z,92.30
2019-04-16T07:59:48.347Z,92.90
2019-04-16T08:02:21.422Z,93.30
2019-04-16T08:04:49.308Z,93.20
2019-04-16T08:07:20.480Z,93.00
2019-04-16T08:09:49.958Z,91.60
2019-04-16T08:12:29.827Z,92.60
2019-04-16T08:14:50.330Z,91.90
2019-04-16T08:17:19.636Z,92.30
2019-04-16T08:19:49.372Z,93.60
2019-04-16T08:22:19.352Z,92.20
2019-04-16T08:24:57.576Z,93.50
2019-04-16T08:27:24.345Z,91.40
2019-04-16T08:29:53.653Z,90.20
2019-04-16T08:32:25.641Z,90.70
2019-04-16T08:34:54.060Z,88.50
2019-04-16T08:37:23.367Z,84.20
2019-04-16T08:39:52.670Z,85.00
2019-04-16T08:42:25.717Z,81.30
2019-04-16T08:44:53.056Z,85.50
2019-04-16T08:47:22.514Z,82.00
2019-04-16T08:49:54.976Z,80.60
2019-04-16T08:52:24.421Z,79.70
2019-04-16T08:54:54.948Z,80.70
2019-04-16T08:57:24.564Z,82.70
2019-04-16T08:59:54.179Z,81.20
2019-04-16T09:02:27.001Z,79.10
2019-04-16T09:04:54.563Z,80.40
2019-04-16T09:07:42.771Z,79.20
2019-04-16T09:10:23.330Z,81.50
2019-04-16T09:13:02.560Z,75.30
2019-04-16T09:15:27.161Z,72.20
2019-04-16T09:17:58.332Z,74.50
2019-04-16T09:20:29.502Z,78.10
2019-04-16T09:22:59.311Z,78.80
2019-04-16T09:25:30.496Z,74.00
2019-04-16T09:28:24.404Z,76.90
2019-04-16T09:30:58.879Z,76.60
2019-04-16T09:33:42.053Z,74.60
2019-04-16T09:36:19.089Z,73.20
2019-04-16T09:38:52.510Z,71.10
2019-04-16T09:41:33.044Z,70.30
2019-04-16T09:44:02.400Z,69.40
2019-04-16T09:46:50.377Z,68.70
2019-04-16T09:49:04.988Z,68.70
2019-04-16T09:51:34.087Z,65.10
2019-04-16T09:54:03.406Z,64.60
2019-04-16T09:56:32.709Z,67.00
2019-04-16T09:59:07.575Z,66.30
2019-04-16T10:01:47.221Z,65.30
2019-04-16T10:04:18.207Z,58.70
2019-04-16T10:06:47.522Z,59.50
2019-04-16T10:09:21.680Z,64.20
2019-04-16T10:11:48.153Z,62.80
2019-04-16T10:14:17.566Z,60.10
2019-04-16T10:16:46.834Z,61.60
2019-04-16T10:19:16.212Z,59.50
2019-04-16T10:21:45.497Z,57.70
2019-04-16T10:24:16.465Z,57.90
2019-04-16T10:26:47.462Z,56.70
2019-04-16T10:29:20.988Z,56.50
2019-04-16T10:31:50.431Z,58.40
2019-04-16T10:34:19.807Z,53.70
2019-04-16T10:36:49.095Z,55.80
2019-04-16T10:39:36.375Z,55.40
2019-04-16T10:42:07.897Z,54.50
2019-04-16T10:44:45.074Z,52.60
2019-04-16T10:47:19.925Z,51.90
2019-04-16T10:50:06.613Z,53.60
2019-04-16T10:52:54.552Z,50.50
2019-04-16T10:55:24.914Z,50.40
2019-04-16T10:58:11.955Z,51.40
2019-04-16T11:00:57.922Z,51.10
2019-04-16T11:03:29.060Z,49.80
2019-04-16T11:06:19.900Z,47.90
2019-04-16T11:08:49.208Z,46.40
2019-04-16T11:11:18.503Z,46.30
2019-04-16T11:13:59.708Z,45.00
2019-04-16T11:16:20.966Z,44.00
2019-04-16T11:18:50.280Z,44.40
2019-04-16T11:21:19.928Z,46.40
2019-04-16T11:23:49.201Z,44.20
2019-04-16T11:26:18.515Z,44.90
2019-04-16T11:28:47.855Z,43.40
2019-04-16T11:31:19.084Z,43.50
2019-04-16T11:33:48.352Z,42.20
2019-04-16T11:36:20.645Z,42.70
2019-04-16T11:38:48.736Z,43.10
2019-04-16T11:41:18.027Z,42.70
2019-04-16T11:43:47.388Z,42.90
2019-04-16T11:46:16.722Z,41.50
2019-04-16T11:48:46.103Z,41.10
2019-04-16T11:51:15.437Z,42.80
2019-04-16T11:53:45.012Z,42.90
2019-04-16T11:56:14.424Z,42.50
2019-04-16T11:58:45.463Z,41.40
2019-04-16T12:01:22.985Z,42.20
2019-04-16T12:04:02.596Z,42.00
2019-04-16T12:06:36.258Z,41.80
2019-04-16T12:09:21.933Z,40.70
2019-04-16T12:11:52.877Z,40.10
2019-04-16T12:14:34.379Z,39.60
2019-04-16T12:17:20.670Z,41.20
2019-04-16T12:20:07.884Z,40.10
2019-04-16T12:22:48.522Z,39.50
2019-04-16T12:25:37.746Z,41.50
2019-04-16T12:28:24.874Z,41.60
2019-04-16T12:30:55.890Z,39.70
2019-04-16T12:33:29.753Z,40.00
2019-04-16T12:36:06.796Z,40.20
2019-04-16T12:38:37.686Z,38.60
2019-04-16T12:41:24.901Z,39.90
2019-04-16T12:43:58.553Z,40.00
2019-04-16T12:46:29.520Z,41.70
2019-04-16T12:49:00.494Z,40.40
2019-04-16T12:51:46.485Z,40.30
2019-04-16T12:54:32.514Z,39.90
2019-04-16T12:57:16.609Z,40.50
2019-04-16T12:59:59.923Z,39.50
2019-04-16T13:02:47.136Z,41.60
2019-04-16T13:05:24.232Z,42.50
2019-04-16T13:08:11.334Z,43.30
2019-04-16T13:10:45.221Z,41.70
2019-04-16T13:13:31.089Z,42.50
2019-04-16T13:16:11.006Z,41.40
2019-04-16T13:18:41.954Z,40.90
2019-04-16T13:21:15.910Z,41.10
2019-04-16T13:23:50.134Z,42.30
2019-04-16T13:26:26.814Z,42.90
2019-04-16T13:28:57.445Z,43.60
2019-04-16T13:31:26.743Z,42.80
2019-04-16T13:33:56.057Z,43.10
2019-04-16T13:36:27.869Z,43.10
2019-04-16T13:39:09.998Z,43.00
2019-04-16T13:41:40.516Z,43.30
2019-04-16T13:44:17.402Z,43.10
2019-04-16T13:46:46.658Z,43.00
2019-04-16T13:49:33.651Z,43.60
2019-04-16T13:52:03.000Z,42.30
2019-04-16T13:54:39.790Z,43.10
2019-04-16T13:57:16.945Z,43.50
2019-04-16T14:00:04.338Z,43.50
2019-04-16T14:02:38.615Z,43.70
2019-04-16T14:05:10.944Z,42.30
2019-04-16T14:07:39.821Z,43.00
2019-04-16T14:10:09.516Z,42.90
2019-04-16T14:12:42.398Z,43.20
2019-04-16T14:15:11.386Z,42.60
2019-04-16T14:17:52.419Z,43.10
2019-04-16T14:20:16.473Z,43.00
2019-04-16T14:22:45.779Z,43.80
2019-04-16T14:25:15.338Z,43.60
2019-04-16T14:27:44.648Z,44.50
2019-04-16T14:30:17.189Z,45.50
2019-04-16T14:32:46.551Z,45.60
2019-04-16T14:35:32.005Z,44.80
2019-04-16T14:37:48.508Z,43.60
2019-04-16T14:40:25.336Z,44.00
2019-04-16T14:42:57.426Z,43.80
2019-04-16T14:45:27.709Z,45.00
2019-04-16T14:47:57.062Z,45.70
2019-04-16T14:50:26.502Z,46.10
2019-04-16T14:52:55.883Z,46.40
2019-04-16T14:55:52.297Z,45.60
2019-04-16T14:58:26.516Z,46.30
2019-04-16T15:01:12.588Z,46.30
2019-04-16T15:03:49.484Z,46.60
2019-04-16T15:06:32.408Z,48.80
2019-04-16T15:09:12.541Z,48.70
2019-04-16T15:11:58.229Z,47.60
2019-04-16T15:14:36.891Z,47.70
2019-04-16T15:17:14.329Z,48.10
2019-04-16T15:19:45.350Z,47.00
2019-04-16T15:22:19.325Z,47.60
2019-04-16T15:24:50.631Z,47.20
2019-04-16T15:27:38.887Z,46.70
2019-04-16T15:30:16.927Z,47.40
2019-04-16T15:32:48.353Z,48.20
2019-04-16T15:35:19.306Z,48.80
2019-04-16T15:37:54.674Z,50.80
2019-04-16T15:40:31.583Z,50.80
2019-04-16T15:43:11.568Z,52.00
2019-04-16T15:45:44.975Z,52.60
2019-04-16T15:48:21.344Z,54.70
2019-04-16T15:51:07.775Z,54.10
2019-04-16T15:53:43.034Z,54.30
2019-04-16T15:56:14.024Z,52.50
2019-04-16T15:58:44.970Z,51.90
2019-04-16T16:01:18.664Z,52.40
2019-04-16T16:04:05.795Z,52.00
2019-04-16T16:06:36.742Z,52.30
2019-04-16T16:09:21.046Z,52.00
2019-04-16T16:11:58.123Z,52.50
2019-04-16T16:14:33.165Z,54.10
2019-04-16T16:16:58.742Z,56.30
2019-04-16T16:19:28.041Z,56.50
2019-04-16T16:21:57.766Z,56.00
2019-04-16T16:24:27.066Z,55.90
2019-04-16T16:26:56.371Z,56.20
2019-04-16T16:29:25.732Z,57.20
2019-04-16T16:31:55.025Z,57.60
2019-04-16T16:34:24.570Z,57.00
2019-04-16T16:36:54.399Z,57.90
2019-04-16T16:39:23.907Z,57.10
2019-04-16T16:41:53.211Z,57.70
2019-04-16T16:44:22.567Z,57.70
2019-04-16T16:46:57.459Z,57.90
2019-04-16T16:49:24.622Z,60.90
2019-04-16T16:51:55.626Z,61.50
2019-04-16T16:54:26.558Z,61.80
2019-04-16T16:57:09.468Z,63.20
2019-04-16T16:59:40.405Z,66.10
2019-04-16T17:02:27.579Z,65.80
2019-04-16T17:04:58.521Z,66.60
2019-04-16T17:07:27.961Z,66.70
2019-04-16T17:09:57.406Z,68.50
2019-04-16T17:12:26.719Z,68.60
2019-04-16T17:14:56.026Z,70.40
2019-04-16T17:17:25.377Z,68.90
2019-04-16T17:19:54.978Z,69.50
2019-04-16T17:22:24.304Z,69.70
2019-04-16T17:24:53.660Z,72.00
2019-04-16T17:27:22.950Z,71.50
2019-04-16T17:29:52.251Z,73.10
2019-04-16T17:32:22.087Z,73.50
2019-04-16T17:34:51.394Z,74.60
2019-04-16T17:37:25.979Z,76.20
2019-04-16T17:39:53.326Z,76.80
2019-04-16T17:42:37.172Z,79.00
2019-04-16T17:45:08.318Z,79.60
2019-04-16T17:47:39.600Z,80.70
2019-04-16T17:50:17.053Z,81.20
2019-04-16T17:52:48.013Z,82.40
2019-04-16T17:55:22.745Z,83.40
2019-04-16T17:57:53.714Z,85.50
2019-04-16T18:00:24.656Z,88.10
2019-04-16T18:03:11.957Z,89.20
2019-04-16T18:05:42.881Z,89.80
2019-04-16T18:08:29.008Z,90.20
2019-04-16T18:11:06.138Z,90.60
2019-04-16T18:13:38.760Z,90.70
2019-04-16T18:16:12.372Z,91.20
2019-04-16T18:18:43.763Z,91.50
2019-04-16T18:21:18.025Z,91.70
2019-04-16T18:23:52.462Z,91.70
2019-04-16T18:26:39.745Z,92.20
2019-04-16T18:29:10.736Z,92.00
2019-04-16T18:31:47.455Z,91.90
2019-04-16T18:34:21.401Z,92.00
2019-04-16T18:36:52.513Z,92.20
2019-04-16T18:39:23.583Z,92.10
2019-04-16T18:41:54.637Z,92.10
2019-04-16T18:44:31.080Z,92.40
2019-04-16T18:47:05.519Z,92.80
2019-04-16T18:49:37.101Z,92.70
2019-04-16T18:52:07.083Z,93.20
2019-04-16T18:54:36.507Z,93.60
2019-04-16T18:57:05.884Z,93.90
2019-04-16T18:59:35.181Z,93.80
2019-04-16T19:02:08.694Z,93.80
2019-04-16T19:04:37.272Z,93.70
2019-04-16T19:07:06.630Z,93.90
2019-04-16T19:09:36.382Z,93.90
2019-04-16T19:12:05.754Z,94.40
2019-04-16T19:14:36.662Z,94.30
2019-04-16T19:17:06.436Z,94.90
2019-04-16T19:19:35.727Z,94.70
2019-04-16T19:22:05.428Z,94.70
2019-04-16T19:24:34.790Z,94.60
2019-04-16T19:27:04.167Z,94.40
2019-04-16T19:29:33.474Z,94.50
2019-04-16T19:32:03.031Z,94.80
2019-04-16T19:34:32.270Z,95.10
2019-04-16T19:37:01.858Z,95.40
2019-04-16T19:39:31.204Z,95.40
2019-04-16T19:42:00.489Z,95.70
2019-04-16T19:44:33.291Z,95.70
2019-04-16T19:47:01.270Z,96.00
2019-04-16T19:49:30.542Z,95.80
2019-04-16T19:51:59.833Z,95.80
2019-04-16T19:54:31.687Z,95.70
2019-04-16T19:57:00.536Z,95.80
2019-04-16T19:59:29.860Z,95.90
2019-04-16T20:02:01.355Z,96.20
2019-04-16T20:04:30.231Z,96.50
2019-04-16T20:07:01.421Z,96.50
2019-04-16T20:09:30.932Z,96.60
2019-04-16T20:12:00.548Z,96.70
2019-04-16T20:14:35.351Z,96.90
2019-04-16T20:17:01.713Z,96.90
2019-04-16T20:19:31.367Z,97.30
2019-04-16T20:22:01.124Z,97.30
2019-04-16T20:24:30.466Z,97.40
2019-04-16T20:27:04.535Z,97.40
2019-04-16T20:29:30.794Z,97.70
2019-04-16T20:32:00.136Z,98.00
2019-04-16T20:34:29.443Z,98.00
2019-04-16T20:36:58.746Z,98.00
2019-04-16T20:39:28.096Z,98.10
2019-04-16T20:41:59.396Z,98.30
2019-04-16T20:44:28.423Z,98.10
2019-04-16T20:46:58.310Z,98.00
2019-04-16T20:49:28.787Z,98.10
2019-04-16T20:52:00.609Z,98.40
2019-04-16T20:54:29.498Z,98.60
2019-04-16T20:57:01.475Z,98.70
2019-04-16T20:59:30.773Z,99.10
2019-04-16T21:02:00.183Z,99.10
2019-04-16T21:04:29.415Z,99.30
2019-04-16T21:06:58.720Z,99.20
2019-04-16T21:09:30.125Z,99.20
2019-04-16T21:11:59.203Z,99.30
2019-04-16T21:14:28.439Z,99.60
2019-04-16T21:16:57.794Z,99.90
2019-04-16T21:19:43.237Z,99.90
2019-04-16T21:22:13.020Z,99.90
2019-04-16T21:24:43.153Z,99.90
2019-04-16T21:27:12.650Z,99.90
2019-04-16T21:29:41.991Z,99.90
2019-04-16T21:32:25.150Z,99.90
2019-04-16T21:34:59.894Z,99.90
2019-04-16T21:37:29.120Z,99.90
2019-04-16T21:40:00.117Z,99.90
2019-04-16T21:42:34.196Z,99.90
2019-04-16T21:45:00.474Z,99.90
2019-04-16T21:47:29.770Z,99.90
2019-04-16T21:49:59.115Z,99.90
2019-04-16T21:52:28.401Z,99.90
2019-04-16T21:55:02.768Z,99.90
2019-04-16T21:57:28.749Z,99.90
2019-04-16T21:59:59.027Z,99.90
2019-04-16T22:02:30.289Z,99.90
2019-04-16T22:04:59.889Z,99.90
2019-04-16T22:07:29.473Z,99.90
2019-04-16T22:09:58.763Z,99.90
2019-04-16T22:12:28.114Z,99.90
2019-04-16T22:14:57.545Z,99.90
2019-04-16T22:17:26.779Z,99.90
2019-04-16T22:20:01.317Z,99.90
2019-04-16T22:22:28.082Z,99.90
2019-04-16T22:24:57.754Z,99.90
2019-04-16T22:27:27.354Z,99.90
2019-04-16T22:29:56.649Z,99.90
2019-04-16T22:32:27.012Z,99.90
2019-04-16T22:34:57.344Z,99.90
2019-04-16T22:37:26.642Z,99.90
2019-04-16T22:39:57.578Z,99.90
2019-04-16T22:42:29.703Z,99.90
2019-04-16T22:45:16.572Z,99.90
2019-04-16T22:47:47.563Z,99.90
2019-04-16T22:50:17.473Z,99.90
2019-04-16T22:52:46.941Z,99.90
2019-04-16T22:55:16.281Z,99.90
2019-04-16T22:57:45.576Z,99.90
2019-04-16T23:00:17.055Z,99.90
2019-04-16T23:02:48.299Z,99.90
2019-04-16T23:05:17.406Z,99.90
2019-04-16T23:07:46.716Z,99.90
2019-04-16T23:10:17.771Z,99.90
2019-04-16T23:12:47.320Z,99.90
2019-04-16T23:15:16.622Z,99.90
2019-04-16T23:17:46.744Z,99.90
2019-04-16T23:20:28.585Z,99.90
2019-04-16T23:22:47.678Z,99.90
2019-04-16T23:25:17.225Z,99.90
2019-04-16T23:27:46.518Z,99.90
2019-04-16T23:30:18.500Z,99.90
2019-04-16T23:32:47.180Z,99.90
2019-04-16T23:35:16.638Z,99.90
2019-04-16T23:37:45.922Z,99.90
2019-04-16T23:40:15.269Z,99.90
2019-04-16T23:42:47.536Z,99.90
2019-04-16T23:45:18.863Z,99.90
2019-04-16T23:47:52.578Z,99.90
2019-04-16T23:50:23.530Z,99.90
2019-04-16T23:52:54.474Z,99.90
2019-04-16T23:55:31.391Z,99.90
2019-04-16T23:58:02.381Z,99.90
